sensor_id;sensor_type;location;lat;lon;timestamp;temperature;humidity
52459;DHT22;38372;52.902;6.024;2023-04-01T00:00:22;9.90;99.90
52459;DHT22;38372;52.902;6.024;2023-04-01T00:02:48;9.90;99.90
52459;DHT22;38372;52.902;6.024;2023-04-01T00:05:14;9.90;99.90
52459;DHT22;38372;52.902;6.024;2023-04-01T00:07:42;9.90;99.90
52459;DHT22;38372;52.902;6.024;2023-04-01T00:10:10;9.90;99.90
52459;DHT22;38372;52.902;6.024;2023-04-01T00:12:37;9.90;99.90
52459;DHT22;38372;52.902;6.024;2023-04-01T00:15:06;9.90;99.90
52459;DHT22;38372;52.902;6.024;2023-04-01T00:17:32;9.90;99.90
52459;DHT22;38372;52.902;6.024;2023-04-01T00:19:58;9.80;99.90
52459;DHT22;38372;52.902;6.024;2023-04-01T00:22:25;9.90;99.90
52459;DHT22;38372;52.902;6.024;2023-04-01T00:24:52;9.80;99.90
52459;DHT22;38372;52.902;6.024;2023-04-01T00:27:18;9.90;99.90
52459;DHT22;38372;52.902;6.024;2023-04-01T00:29:44;9.90;99.90
52459;DHT22;38372;52.902;6.024;2023-04-01T00:32:11;9.80;99.90
52459;DHT22;38372;52.902;6.024;2023-04-01T00:34:37;9.80;99.90
52459;DHT22;38372;52.902;6.024;2023-04-01T00:37:03;9.80;99.90
52459;DHT22;38372;52.902;6.024;2023-04-01T00:39:30;9.80;99.90
52459;DHT22;38372;52.902;6.024;2023-04-01T00:41:55;9.80;99.90
52459;DHT22;38372;52.902;6.024;2023-04-01T00:44:28;9.80;99.90
52459;DHT22;38372;52.902;6.024;2023-04-01T00:46:54;9.80;99.90
52459;DHT22;38372;52.902;6.024;2023-04-01T00:49:22;9.80;99.90
52459;DHT22;38372;52.902;6.024;2023-04-01T00:51:53;9.80;99.90
52459;DHT22;38372;52.902;6.024;2023-04-01T00:54:22;9.80;99.90
52459;DHT22;38372;52.902;6.024;2023-04-01T00:57:02;9.80;99.90
52459;DHT22;38372;52.902;6.024;2023-04-01T00:59:47;9.80;99.90
52459;DHT22;38372;52.902;6.024;2023-04-01T01:02:17;9.80;99.90
52459;DHT22;38372;52.902;6.024;2023-04-01T01:04:44;9.90;99.90
52459;DHT22;38372;52.902;6.024;2023-04-01T01:15:26;9.90;99.90
52459;DHT22;38372;52.902;6.024;2023-04-01T01:23:40;9.90;99.90
52459;DHT22;38372;52.902;6.024;2023-04-01T01:33:58;9.80;99.90
52459;DHT22;38372;52.902;6.024;2023-04-01T01:36:31;9.80;99.90
52459;DHT22;38372;52.902;6.024;2023-04-01T01:39:03;9.80;99.90
52459;DHT22;38372;52.902;6.024;2023-04-01T01:41:31;9.80;99.90
52459;DHT22;38372;52.902;6.024;2023-04-01T01:43:59;9.80;99.90
52459;DHT22;38372;52.902;6.024;2023-04-01T01:46:27;9.80;99.90
52459;DHT22;38372;52.902;6.024;2023-04-01T01:48:55;9.90;99.90
52459;DHT22;38372;52.902;6.024;2023-04-01T01:51:22;9.90;99.90
52459;DHT22;38372;52.902;6.024;2023-04-01T01:53:48;9.80;99.90
52459;DHT22;38372;52.902;6.024;2023-04-01T01:56:14;9.90;99.90
52459;DHT22;38372;52.902;6.024;2023-04-01T01:58:45;9.90;99.90
52459;DHT22;38372;52.902;6.024;2023-04-01T02:01:17;9.80;99.90
52459;DHT22;38372;52.902;6.024;2023-04-01T02:03:43;9.90;99.90
52459;DHT22;38372;52.902;6.024;2023-04-01T02:06:13;9.80;99.90
52459;DHT22;38372;52.902;6.024;2023-04-01T02:08:45;9.80;99.90
52459;DHT22;38372;52.902;6.024;2023-04-01T02:11:14;9.80;99.90
52459;DHT22;38372;52.902;6.024;2023-04-01T02:14:07;9.80;99.90
52459;DHT22;38372;52.902;6.024;2023-04-01T02:16:40;9.80;99.90
52459;DHT22;38372;52.902;6.024;2023-04-01T02:19:10;9.90;99.90
52459;DHT22;38372;52.902;6.024;2023-04-01T02:21:39;9.80;99.90
52459;DHT22;38372;52.902;6.024;2023-04-01T02:24:08;9.90;99.90
52459;DHT22;38372;52.902;6.024;2023-04-01T02:26:35;9.80;99.90
52459;DHT22;38372;52.902;6.024;2023-04-01T02:29:03;9.80;99.90
52459;DHT22;38372;52.902;6.024;2023-04-01T02:31:31;9.80;99.90
52459;DHT22;38372;52.902;6.024;2023-04-01T02:33:57;9.80;99.90
52459;DHT22;38372;52.902;6.024;2023-04-01T02:36:24;9.90;99.90
52459;DHT22;38372;52.902;6.024;2023-04-01T02:38:51;9.90;99.90
52459;DHT22;38372;52.902;6.024;2023-04-01T02:41:17;9.90;99.90
52459;DHT22;38372;52.902;6.024;2023-04-01T02:43:43;9.90;99.90
52459;DHT22;38372;52.902;6.024;2023-04-01T02:46:09;9.90;99.90
52459;DHT22;38372;52.902;6.024;2023-04-01T02:48:35;9.90;99.90
52459;DHT22;38372;52.902;6.024;2023-04-01T02:51:01;9.90;99.90
52459;DHT22;38372;52.902;6.024;2023-04-01T02:53:26;9.90;99.90
52459;DHT22;38372;52.902;6.024;2023-04-01T02:55:52;9.90;99.90
52459;DHT22;38372;52.902;6.024;2023-04-01T02:58:18;9.90;99.90
52459;DHT22;38372;52.902;6.024;2023-04-01T03:00:44;9.90;99.90
52459;DHT22;38372;52.902;6.024;2023-04-01T03:03:10;9.90;99.90
52459;DHT22;38372;52.902;6.024;2023-04-01T03:05:36;9.90;99.90
52459;DHT22;38372;52.902;6.024;2023-04-01T03:08:02;9.90;99.90
52459;DHT22;38372;52.902;6.024;2023-04-01T03:10:28;9.90;99.90
52459;DHT22;38372;52.902;6.024;2023-04-01T03:12:54;9.90;99.90
52459;DHT22;38372;52.902;6.024;2023-04-01T03:15:20;9.90;99.90
52459;DHT22;38372;52.902;6.024;2023-04-01T03:17:46;9.90;99.90
52459;DHT22;38372;52.902;6.024;2023-04-01T03:20:12;9.90;99.90
52459;DHT22;38372;52.902;6.024;2023-04-01T03:22:38;9.80;99.90
52459;DHT22;38372;52.902;6.024;2023-04-01T03:25:05;9.90;99.90
52459;DHT22;38372;52.902;6.024;2023-04-01T03:27:33;9.90;99.90
52459;DHT22;38372;52.902;6.024;2023-04-01T03:30:01;9.80;99.90
52459;DHT22;38372;52.902;6.024;2023-04-01T03:32:28;9.80;99.90
52459;DHT22;38372;52.902;6.024;2023-04-01T03:34:54;9.80;99.90
52459;DHT22;38372;52.902;6.024;2023-04-01T03:37:20;9.80;99.90
52459;DHT22;38372;52.902;6.024;2023-04-01T03:39:46;9.80;99.90
52459;DHT22;38372;52.902;6.024;2023-04-01T03:42:12;9.70;99.90
52459;DHT22;38372;52.902;6.024;2023-04-01T03:44:37;9.70;99.90
52459;DHT22;38372;52.902;6.024;2023-04-01T03:47:03;9.70;99.90
52459;DHT22;38372;52.902;6.024;2023-04-01T03:49:29;9.70;99.90
52459;DHT22;38372;52.902;6.024;2023-04-01T03:51:55;9.70;99.90
52459;DHT22;38372;52.902;6.024;2023-04-01T03:54:21;9.70;99.90
52459;DHT22;38372;52.902;6.024;2023-04-01T03:56:47;9.70;99.90
52459;DHT22;38372;52.902;6.024;2023-04-01T03:59:13;9.70;99.90
52459;DHT22;38372;52.902;6.024;2023-04-01T04:01:39;9.70;99.90
52459;DHT22;38372;52.902;6.024;2023-04-01T04:04:05;9.70;99.90
52459;DHT22;38372;52.902;6.024;2023-04-01T04:06:32;9.60;99.90
52459;DHT22;38372;52.902;6.024;2023-04-01T04:08:58;9.70;99.90
52459;DHT22;38372;52.902;6.024;2023-04-01T04:11:24;9.70;99.90
52459;DHT22;38372;52.902;6.024;2023-04-01T04:13:50;9.60;99.90
52459;DHT22;38372;52.902;6.024;2023-04-01T04:16:16;9.70;99.90
52459;DHT22;38372;52.902;6.024;2023-04-01T04:18:42;9.70;99.90
52459;DHT22;38372;52.902;6.024;2023-04-01T04:21:15;9.60;99.90
52459;DHT22;38372;52.902;6.024;2023-04-01T04:23:41;9.60;99.90
52459;DHT22;38372;52.902;6.024;2023-04-01T04:26:09;9.70;99.90
52459;DHT22;38372;52.902;6.024;2023-04-01T04:28:35;9.70;99.90
52459;DHT22;38372;52.902;6.024;2023-04-01T04:31:02;9.60;99.90
52459;DHT22;38372;52.902;6.024;2023-04-01T04:33:28;9.70;99.90
52459;DHT22;38372;52.902;6.024;2023-04-01T04:35:58;9.60;99.90
52459;DHT22;38372;52.902;6.024;2023-04-01T04:38:25;9.70;99.90
52459;DHT22;38372;52.902;6.024;2023-04-01T04:40:50;9.60;99.90
52459;DHT22;38372;52.902;6.024;2023-04-01T04:43:17;9.60;99.90
52459;DHT22;38372;52.902;6.024;2023-04-01T04:45:43;9.60;99.90
52459;DHT22;38372;52.902;6.024;2023-04-01T04:48:13;9.60;99.90
52459;DHT22;38372;52.902;6.024;2023-04-01T04:50:44;9.60;99.90
52459;DHT22;38372;52.902;6.024;2023-04-01T04:53:13;9.60;99.90
52459;DHT22;38372;52.902;6.024;2023-04-01T04:55:48;9.60;99.90
52459;DHT22;38372;52.902;6.024;2023-04-01T04:58:14;9.60;99.90
52459;DHT22;38372;52.902;6.024;2023-04-01T05:00:40;9.60;99.90
52459;DHT22;38372;52.902;6.024;2023-04-01T05:03:06;9.60;99.90
52459;DHT22;38372;52.902;6.024;2023-04-01T05:05:33;9.60;99.90
52459;DHT22;38372;52.902;6.024;2023-04-01T05:08:00;9.60;99.90
52459;DHT22;38372;52.902;6.024;2023-04-01T05:10:25;9.60;99.90
52459;DHT22;38372;52.902;6.024;2023-04-01T05:12:51;9.60;99.90
52459;DHT22;38372;52.902;6.024;2023-04-01T05:15:17;9.60;99.90
52459;DHT22;38372;52.902;6.024;2023-04-01T05:17:43;9.60;99.90
52459;DHT22;38372;52.902;6.024;2023-04-01T05:20:09;9.60;99.90
52459;DHT22;38372;52.902;6.024;2023-04-01T05:22:35;9.60;99.90
52459;DHT22;38372;52.902;6.024;2023-04-01T05:25:01;9.60;99.90
52459;DHT22;38372;52.902;6.024;2023-04-01T05:27:26;9.60;99.90
52459;DHT22;38372;52.902;6.024;2023-04-01T05:29:52;9.60;99.90
52459;DHT22;38372;52.902;6.024;2023-04-01T05:32:18;9.60;99.90
52459;DHT22;38372;52.902;6.024;2023-04-01T05:34:44;9.60;99.90
52459;DHT22;38372;52.902;6.024;2023-04-01T05:37:09;9.70;99.90
52459;DHT22;38372;52.902;6.024;2023-04-01T05:39:37;9.60;99.90
52459;DHT22;38372;52.902;6.024;2023-04-01T05:42:05;9.70;99.90
52459;DHT22;38372;52.902;6.024;2023-04-01T05:44:30;9.70;99.90
52459;DHT22;38372;52.902;6.024;2023-04-01T05:46:56;9.70;99.90
52459;DHT22;38372;52.902;6.024;2023-04-01T05:49:22;9.70;99.90
52459;DHT22;38372;52.902;6.024;2023-04-01T05:51:48;9.70;99.90
52459;DHT22;38372;52.902;6.024;2023-04-01T05:54:14;9.70;99.90
52459;DHT22;38372;52.902;6.024;2023-04-01T05:56:39;9.80;99.90
52459;DHT22;38372;52.902;6.024;2023-04-01T05:59:05;9.80;99.90
52459;DHT22;38372;52.902;6.024;2023-04-01T06:01:31;9.80;99.90
52459;DHT22;38372;52.902;6.024;2023-04-01T06:03:57;9.80;99.90
52459;DHT22;38372;52.902;6.024;2023-04-01T06:06:25;9.90;99.90
52459;DHT22;38372;52.902;6.024;2023-04-01T06:08:52;9.90;99.90
52459;DHT22;38372;52.902;6.024;2023-04-01T06:43:42;10.20;99.90
52459;DHT22;38372;52.902;6.024;2023-04-01T06:57:02;10.20;99.90
52459;DHT22;38372;52.902;6.024;2023-04-01T06:59:33;10.20;99.90
52459;DHT22;38372;52.902;6.024;2023-04-01T07:04:44;10.30;99.90
52459;DHT22;38372;52.902;6.024;2023-04-01T07:09:59;10.30;99.90
52459;DHT22;38372;52.902;6.024;2023-04-01T07:15:12;10.30;99.90
52459;DHT22;38372;52.902;6.024;2023-04-01T07:17:39;10.30;99.90
52459;DHT22;38372;52.902;6.024;2023-04-01T07:20:33;10.30;99.90
52459;DHT22;38372;52.902;6.024;2023-04-01T07:23:07;10.30;99.90
52459;DHT22;38372;52.902;6.024;2023-04-01T07:25:45;10.30;99.90
52459;DHT22;38372;52.902;6.024;2023-04-01T07:28:14;10.20;99.90
52459;DHT22;38372;52.902;6.024;2023-04-01T07:38:26;10.20;99.90
52459;DHT22;38372;52.902;6.024;2023-04-01T07:44:06;10.20;99.90
52459;DHT22;38372;52.902;6.024;2023-04-01T07:49:30;10.20;99.90
52459;DHT22;38372;52.902;6.024;2023-04-01T07:57:53;10.20;99.90
52459;DHT22;38372;52.902;6.024;2023-04-01T08:00:27;10.30;99.90
52459;DHT22;38372;52.902;6.024;2023-04-01T08:05:41;10.30;99.90
52459;DHT22;38372;52.902;6.024;2023-04-01T08:13:44;10.50;99.90
52459;DHT22;38372;52.902;6.024;2023-04-01T08:19:43;10.60;99.90
52459;DHT22;38372;52.902;6.024;2023-04-01T08:22:23;10.60;99.90
52459;DHT22;38372;52.902;6.024;2023-04-01T08:24:51;10.60;99.90
52459;DHT22;38372;52.902;6.024;2023-04-01T08:27:37;10.60;99.90
52459;DHT22;38372;52.902;6.024;2023-04-01T08:30:18;10.60;99.90
52459;DHT22;38372;52.902;6.024;2023-04-01T08:35:58;10.60;99.90
52459;DHT22;38372;52.902;6.024;2023-04-01T08:38:40;10.60;99.90
52459;DHT22;38372;52.902;6.024;2023-04-01T08:55:19;10.60;99.90
52459;DHT22;38372;52.902;6.024;2023-04-01T09:00:56;10.70;99.90
52459;DHT22;38372;52.902;6.024;2023-04-01T09:03:46;10.60;99.90
52459;DHT22;38372;52.902;6.024;2023-04-01T09:17:59;10.70;99.90
52459;DHT22;38372;52.902;6.024;2023-04-01T09:27:57;10.60;99.90
52459;DHT22;38372;52.902;6.024;2023-04-01T09:44:02;10.60;99.90
52459;DHT22;38372;52.902;6.024;2023-04-01T09:52:40;10.70;99.90
52459;DHT22;38372;52.902;6.024;2023-04-01T10:22:35;11.30;99.90
52459;DHT22;38372;52.902;6.024;2023-04-01T10:52:54;11.50;99.90
52459;DHT22;38372;52.902;6.024;2023-04-01T11:32:53;11.10;99.90
52459;DHT22;38372;52.902;6.024;2023-04-01T11:41:40;11.00;99.90
52459;DHT22;38372;52.902;6.024;2023-04-01T11:44:25;11.00;99.90
52459;DHT22;38372;52.902;6.024;2023-04-01T11:50:20;11.00;99.90
52459;DHT22;38372;52.902;6.024;2023-04-01T12:06:46;10.90;99.90
52459;DHT22;38372;52.902;6.024;2023-04-01T12:12:18;10.90;99.90
52459;DHT22;38372;52.902;6.024;2023-04-01T12:20:44;11.00;99.90
52459;DHT22;38372;52.902;6.024;2023-04-01T12:34:01;11.10;99.90
52459;DHT22;38372;52.902;6.024;2023-04-01T12:37:54;11.00;99.90
52459;DHT22;38372;52.902;6.024;2023-04-01T12:40:17;11.00;99.90
52459;DHT22;38372;52.902;6.024;2023-04-01T12:43:11;11.00;99.90
52459;DHT22;38372;52.902;6.024;2023-04-01T12:46:12;11.00;99.90
52459;DHT22;38372;52.902;6.024;2023-04-01T12:51:57;11.00;99.90
52459;DHT22;38372;52.902;6.024;2023-04-01T13:11:20;10.90;99.90
52459;DHT22;38372;52.902;6.024;2023-04-01T13:14:17;10.90;99.90
52459;DHT22;38372;52.902;6.024;2023-04-01T13:27:19;10.80;99.90
52459;DHT22;38372;52.902;6.024;2023-04-01T13:38:08;10.80;99.90
52459;DHT22;38372;52.902;6.024;2023-04-01T13:59:34;10.90;99.90
52459;DHT22;38372;52.902;6.024;2023-04-01T14:10:23;10.70;99.90
52459;DHT22;38372;52.902;6.024;2023-04-01T14:12:56;10.70;99.90
52459;DHT22;38372;52.902;6.024;2023-04-01T14:15:58;10.60;99.90
52459;DHT22;38372;52.902;6.024;2023-04-01T14:18:56;10.50;99.90
52459;DHT22;38372;52.902;6.024;2023-04-01T14:27:47;10.20;99.90
52459;DHT22;38372;52.902;6.024;2023-04-01T14:38:55;10.00;99.90
52459;DHT22;38372;52.902;6.024;2023-04-01T14:50:06;9.80;99.90
52459;DHT22;38372;52.902;6.024;2023-04-01T14:52:38;9.80;99.90
52459;DHT22;38372;52.902;6.024;2023-04-01T15:01:01;9.70;99.90
52459;DHT22;38372;52.902;6.024;2023-04-01T15:06:38;9.70;99.90
52459;DHT22;38372;52.902;6.024;2023-04-01T15:15:39;9.60;99.90
52459;DHT22;38372;52.902;6.024;2023-04-01T15:18:12;9.60;99.90
52459;DHT22;38372;52.902;6.024;2023-04-01T15:20:46;9.60;99.90
52459;DHT22;38372;52.902;6.024;2023-04-01T15:31:58;9.60;99.90
52459;DHT22;38372;52.902;6.024;2023-04-01T15:34:37;9.60;99.90
52459;DHT22;38372;52.902;6.024;2023-04-01T15:37:40;9.60;99.90
52459;DHT22;38372;52.902;6.024;2023-04-01T15:43:20;9.60;99.90
52459;DHT22;38372;52.902;6.024;2023-04-01T15:46:13;9.50;99.90
52459;DHT22;38372;52.902;6.024;2023-04-01T15:59:58;9.50;99.90
52459;DHT22;38372;52.902;6.024;2023-04-01T16:08:10;9.30;99.90
52459;DHT22;38372;52.902;6.024;2023-04-01T16:11:48;9.30;99.90
52459;DHT22;38372;52.902;6.024;2023-04-01T16:16:59;9.10;99.90
52459;DHT22;38372;52.902;6.024;2023-04-01T16:19:59;9.10;99.90
52459;DHT22;38372;52.902;6.024;2023-04-01T16:22:38;9.00;99.90
52459;DHT22;38372;52.902;6.024;2023-04-01T16:25:49;8.90;99.90
52459;DHT22;38372;52.902;6.024;2023-04-01T16:42:32;8.80;99.90
52459;DHT22;38372;52.902;6.024;2023-04-01T16:45:24;8.70;99.90
52459;DHT22;38372;52.902;6.024;2023-04-01T16:47:49;8.60;99.90
52459;DHT22;38372;52.902;6.024;2023-04-01T16:50:30;8.60;99.90
52459;DHT22;38372;52.902;6.024;2023-04-01T16:55:43;8.60;99.90
52459;DHT22;38372;52.902;6.024;2023-04-01T16:58:18;8.60;99.90
52459;DHT22;38372;52.902;6.024;2023-04-01T17:00:53;8.50;99.90
52459;DHT22;38372;52.902;6.024;2023-04-01T17:03:36;8.50;99.90
52459;DHT22;38372;52.902;6.024;2023-04-01T17:06:46;8.40;99.90
52459;DHT22;38372;52.902;6.024;2023-04-01T17:09:29;8.30;99.90
52459;DHT22;38372;52.902;6.024;2023-04-01T17:14:50;8.30;99.90
52459;DHT22;38372;52.902;6.024;2023-04-01T17:23:19;8.20;99.90
52459;DHT22;38372;52.902;6.024;2023-04-01T17:26:06;8.20;99.90
52459;DHT22;38372;52.902;6.024;2023-04-01T17:31:40;8.10;99.90
52459;DHT22;38372;52.902;6.024;2023-04-01T17:40:26;8.00;99.90
52459;DHT22;38372;52.902;6.024;2023-04-01T17:43:07;8.00;99.90
52459;DHT22;38372;52.902;6.024;2023-04-01T17:45:49;8.00;99.90
52459;DHT22;38372;52.902;6.024;2023-04-01T17:48:29;7.90;99.90
52459;DHT22;38372;52.902;6.024;2023-04-01T18:02:42;7.70;99.90
52459;DHT22;38372;52.902;6.024;2023-04-01T18:16:51;7.40;99.90
52459;DHT22;38372;52.902;6.024;2023-04-01T18:25:17;7.30;99.90
52459;DHT22;38372;52.902;6.024;2023-04-01T18:27:49;7.30;99.90
52459;DHT22;38372;52.902;6.024;2023-04-01T18:32:51;7.20;99.90
52459;DHT22;38372;52.902;6.024;2023-04-01T18:35:27;7.10;99.90
52459;DHT22;38372;52.902;6.024;2023-04-01T18:40:38;7.10;99.90
52459;DHT22;38372;52.902;6.024;2023-04-01T18:43:32;7.10;99.90
52459;DHT22;38372;52.902;6.024;2023-04-01T18:49:07;7.00;99.90
52459;DHT22;38372;52.902;6.024;2023-04-01T18:51:55;7.00;99.90
52459;DHT22;38372;52.902;6.024;2023-04-01T18:57:40;7.00;99.90
52459;DHT22;38372;52.902;6.024;2023-04-01T19:00:26;7.00;99.90
52459;DHT22;38372;52.902;6.024;2023-04-01T19:03:02;6.90;99.90
52459;DHT22;38372;52.902;6.024;2023-04-01T19:05:34;6.90;99.90
52459;DHT22;38372;52.902;6.024;2023-04-01T19:14:11;6.90;99.90
52459;DHT22;38372;52.902;6.024;2023-04-01T19:20:13;6.90;99.90
52459;DHT22;38372;52.902;6.024;2023-04-01T19:25:33;6.80;99.90
52459;DHT22;38372;52.902;6.024;2023-04-01T19:28:26;6.80;99.90
52459;DHT22;38372;52.902;6.024;2023-04-01T19:30:57;6.80;99.90
52459;DHT22;38372;52.902;6.024;2023-04-01T19:33:59;6.80;99.90
52459;DHT22;38372;52.902;6.024;2023-04-01T19:37:08;6.80;99.90
52459;DHT22;38372;52.902;6.024;2023-04-01T19:48:29;6.80;99.90
52459;DHT22;38372;52.902;6.024;2023-04-01T19:54:01;6.80;99.90
52459;DHT22;38372;52.902;6.024;2023-04-01T19:59:31;6.80;99.90
52459;DHT22;38372;52.902;6.024;2023-04-01T20:04:41;6.70;99.90
52459;DHT22;38372;52.902;6.024;2023-04-01T20:07:16;6.70;99.90
52459;DHT22;38372;52.902;6.024;2023-04-01T20:10:04;6.70;99.90
52459;DHT22;38372;52.902;6.024;2023-04-01T20:17:52;6.70;99.90
52459;DHT22;38372;52.902;6.024;2023-04-01T20:20:21;6.70;99.90
52459;DHT22;38372;52.902;6.024;2023-04-01T20:23:04;6.60;99.90
52459;DHT22;38372;52.902;6.024;2023-04-01T20:25:53;6.60;99.90
52459;DHT22;38372;52.902;6.024;2023-04-01T20:50:34;6.40;99.90
52459;DHT22;38372;52.902;6.024;2023-04-01T21:01:33;6.30;99.90
52459;DHT22;38372;52.902;6.024;2023-04-01T21:21:21;6.10;99.90
52459;DHT22;38372;52.902;6.024;2023-04-01T21:24:23;6.10;99.90
52459;DHT22;38372;52.902;6.024;2023-04-01T21:40:41;6.00;99.90
52459;DHT22;38372;52.902;6.024;2023-04-01T21:59:21;5.90;99.90
52459;DHT22;38372;52.902;6.024;2023-04-01T22:05:05;5.90;99.90
52459;DHT22;38372;52.902;6.024;2023-04-01T22:10:44;5.90;99.90
52459;DHT22;38372;52.902;6.024;2023-04-01T22:13:23;5.90;99.90
52459;DHT22;38372;52.902;6.024;2023-04-01T22:18:42;5.80;99.90
52459;DHT22;38372;52.902;6.024;2023-04-01T22:21:23;5.80;99.90
52459;DHT22;38372;52.902;6.024;2023-04-01T22:26:35;5.80;99.90
52459;DHT22;38372;52.902;6.024;2023-04-01T22:31:58;5.80;99.90
52459;DHT22;38372;52.902;6.024;2023-04-01T22:37:27;5.80;99.90
52459;DHT22;38372;52.902;6.024;2023-04-01T22:43:09;5.80;99.90
52459;DHT22;38372;52.902;6.024;2023-04-01T22:48:27;5.80;99.90
52459;DHT22;38372;52.902;6.024;2023-04-01T22:56:34;5.70;99.90
52459;DHT22;38372;52.902;6.024;2023-04-01T22:59:08;5.80;99.90
52459;DHT22;38372;52.902;6.024;2023-04-01T23:01:40;5.80;99.90
52459;DHT22;38372;52.902;6.024;2023-04-01T23:04:10;5.70;99.90
52459;DHT22;38372;52.902;6.024;2023-04-01T23:06:45;5.70;99.90
52459;DHT22;38372;52.902;6.024;2023-04-01T23:09:21;5.70;99.90
52459;DHT22;38372;52.902;6.024;2023-04-01T23:11:55;5.70;99.90
52459;DHT22;38372;52.902;6.024;2023-04-01T23:20:03;5.70;99.90
52459;DHT22;38372;52.902;6.024;2023-04-01T23:30:53;5.50;99.90
52459;DHT22;38372;52.902;6.024;2023-04-01T23:38:34;5.40;99.90
52459;DHT22;38372;52.902;6.024;2023-04-01T23:41:01;5.40;99.90
52459;DHT22;38372;52.902;6.024;2023-04-01T23:43:37;5.30;99.90
52459;DHT22;38372;52.902;6.024;2023-04-01T23:46:06;5.30;99.90
52459;DHT22;38372;52.902;6.024;2023-04-01T23:48:38;5.30;99.90
52459;DHT22;38372;52.902;6.024;2023-04-01T23:51:22;5.30;99.90
52459;DHT22;38372;52.902;6.024;2023-04-01T23:53:57;5.30;99.90
52459;DHT22;38372;52.902;6.024;2023-04-01T23:56:38;5.20;99.90
52459;DHT22;38372;52.902;6.024;2023-04-01T23:59:04;5.20;99.90
